createdAt,value
2024-03-15T00:00:15.905Z,49.36
2024-03-15T00:02:46.523Z,49.42
2024-03-15T00:05:15.159Z,49.44
2024-03-15T00:07:43.675Z,49.44
2024-03-15T00:10:12.168Z,49.33
2024-03-15T00:12:40.693Z,49.48
2024-03-15T00:15:10.576Z,49.39
2024-03-15T00:17:39.439Z,49.36
2024-03-15T00:20:09.346Z,49.29
2024-03-15T00:22:38.149Z,49.32
2024-03-15T00:25:08.314Z,49.38
2024-03-15T00:27:36.848Z,49.27
2024-03-15T00:30:08.905Z,49.24
2024-03-15T00:32:37.343Z,49.28
2024-03-15T00:35:06.316Z,49.27
2024-03-15T00:37:34.775Z,49.51
2024-03-15T00:40:03.328Z,49.55
2024-03-15T00:42:32.029Z,49.36
2024-03-15T00:45:01.965Z,49.43
2024-03-15T00:47:31.488Z,49.27
2024-03-15T00:49:59.893Z,49.14
2024-03-15T00:52:28.377Z,49.43
2024-03-15T00:54:57.326Z,49.42
2024-03-15T00:57:25.930Z,49.44
2024-03-15T00:59:54.669Z,49.37
2024-03-15T01:02:23.178Z,49.29
2024-03-15T01:04:52.405Z,49.45
2024-03-15T01:07:21.544Z,49.50
2024-03-15T01:09:50.037Z,49.47
2024-03-15T01:12:18.543Z,49.60
2024-03-15T01:14:47.503Z,49.54
2024-03-15T01:17:18.868Z,49.54
2024-03-15T01:19:47.402Z,49.56
2024-03-15T01:22:16.827Z,49.63
2024-03-15T01:24:45.420Z,49.53
2024-03-15T01:27:13.977Z,49.50
2024-03-15T01:29:45.671Z,49.54
2024-03-15T01:32:14.169Z,49.43
2024-03-15T01:34:42.597Z,49.48
2024-03-15T01:37:11.542Z,49.49
2024-03-15T01:39:40.321Z,49.48
2024-03-15T01:42:08.805Z,49.56
2024-03-15T01:44:48.147Z,49.41
2024-03-15T01:47:16.838Z,49.48
2024-03-15T01:49:47.953Z,49.51
2024-03-15T01:52:16.505Z,49.57
2024-03-15T01:54:45.927Z,49.57
2024-03-15T01:57:14.668Z,49.46
2024-03-15T01:59:43.665Z,49.58
2024-03-15T02:02:14.488Z,49.66
2024-03-15T02:04:42.964Z,49.54
2024-03-15T02:07:11.448Z,49.61
2024-03-15T02:09:39.982Z,49.74
2024-03-15T02:12:10.051Z,49.59
2024-03-15T02:14:38.563Z,49.73
2024-03-15T02:17:08.110Z,49.65
2024-03-15T02:19:36.592Z,49.76
2024-03-15T02:22:05.067Z,49.79
2024-03-15T02:24:33.534Z,49.78
2024-03-15T02:27:02.865Z,49.81
2024-03-15T02:29:31.369Z,49.87
2024-03-15T02:31:59.866Z,49.77
2024-03-15T02:34:28.387Z,49.83
2024-03-15T02:36:59.600Z,49.71
2024-03-15T02:39:28.204Z,49.76
2024-03-15T02:41:57.029Z,49.84
2024-03-15T02:44:25.823Z,49.75
2024-03-15T02:46:54.301Z,49.77
2024-03-15T02:49:22.800Z,49.73
2024-03-15T02:51:53.130Z,49.73
2024-03-15T02:54:21.749Z,49.85
2024-03-15T02:56:50.316Z,49.77
2024-03-15T02:59:20.710Z,49.91
2024-03-15T03:01:52.717Z,49.80
2024-03-15T03:04:21.275Z,49.90
2024-03-15T03:06:49.789Z,49.99
2024-03-15T03:09:19.552Z,50.07
2024-03-15T03:11:48.075Z,50.15
2024-03-15T03:14:16.659Z,50.25
2024-03-15T03:16:46.162Z,50.28
2024-03-15T03:19:18.355Z,50.31
2024-03-15T03:21:47.827Z,50.28
2024-03-15T03:24:16.664Z,50.48
2024-03-15T03:26:45.919Z,50.46
2024-03-15T03:29:14.385Z,50.43
2024-03-15T03:31:43.764Z,50.49
2024-03-15T03:34:12.321Z,50.35
2024-03-15T03:36:40.943Z,50.52
2024-03-15T03:39:11.866Z,50.62
2024-03-15T03:41:43.619Z,50.62
2024-03-15T03:44:12.084Z,50.55
2024-03-15T03:46:39.560Z,50.61
2024-03-15T03:49:08.037Z,50.58
2024-03-15T03:51:36.587Z,50.60
2024-03-15T03:54:08.074Z,50.65
2024-03-15T03:56:40.239Z,50.74
2024-03-15T03:59:09.701Z,50.75
2024-03-15T04:01:39.323Z,50.82
2024-03-15T04:04:08.218Z,50.75
2024-03-15T04:06:37.007Z,50.82
2024-03-15T04:09:05.626Z,50.80
2024-03-15T04:11:34.354Z,50.92
2024-03-15T04:14:04.568Z,50.96
2024-03-15T04:16:33.205Z,50.99
2024-03-15T04:19:02.476Z,51.04
2024-03-15T04:21:31.000Z,51.00
2024-03-15T04:23:59.804Z,51.13
2024-03-15T04:26:29.383Z,51.08
2024-03-15T04:28:58.672Z,51.21
2024-03-15T04:31:27.165Z,51.19
2024-03-15T04:33:56.803Z,51.24
2024-03-15T04:36:27.324Z,51.29
2024-03-15T04:38:55.811Z,51.32
2024-03-15T04:41:24.335Z,51.34
2024-03-15T04:43:52.784Z,51.41
2024-03-15T04:46:21.230Z,51.43
2024-03-15T04:48:50.000Z,51.50
2024-03-15T04:51:19.258Z,51.58
2024-03-15T04:53:47.763Z,51.59
2024-03-15T04:56:16.245Z,51.65
2024-03-15T04:58:45.007Z,51.69
2024-03-15T05:01:15.353Z,51.73
2024-03-15T05:03:44.163Z,52.00
2024-03-15T05:06:20.456Z,51.81
2024-03-15T05:09:00.991Z,51.80
2024-03-15T05:11:33.152Z,51.97
2024-03-15T05:14:01.682Z,52.00
2024-03-15T05:16:30.176Z,51.94
2024-03-15T05:18:58.720Z,51.98
2024-03-15T05:21:27.272Z,52.09
2024-03-15T05:23:55.786Z,52.02
2024-03-15T05:26:24.252Z,52.12
2024-03-15T05:28:52.715Z,52.15
2024-03-15T05:31:28.183Z,52.19
2024-03-15T05:33:56.733Z,52.05
2024-03-15T05:36:25.295Z,52.05
2024-03-15T05:38:53.832Z,52.09
2024-03-15T05:41:22.367Z,52.06
2024-03-15T05:43:51.208Z,52.08
2024-03-15T05:46:19.724Z,52.14
2024-03-15T05:48:48.470Z,52.15
2024-03-15T05:51:17.027Z,52.18
2024-03-15T05:53:48.539Z,52.01
2024-03-15T05:56:17.324Z,52.19
2024-03-15T05:58:45.867Z,52.11
2024-03-15T06:01:13.685Z,52.21
2024-03-15T06:03:42.552Z,52.23
2024-03-15T06:06:11.546Z,52.30
2024-03-15T06:08:40.056Z,52.28
2024-03-15T06:11:08.565Z,52.28
2024-03-15T06:13:37.236Z,52.45
2024-03-15T06:16:06.619Z,52.45
2024-03-15T06:18:38.778Z,52.58
2024-03-15T06:21:09.949Z,52.73
2024-03-15T06:23:38.444Z,52.74
2024-03-15T06:26:07.271Z,52.84
2024-03-15T06:28:38.224Z,52.90
2024-03-15T06:31:09.651Z,52.87
2024-03-15T06:33:38.132Z,53.03
2024-03-15T06:36:06.908Z,53.11
2024-03-15T06:38:52.415Z,53.15
2024-03-15T06:41:31.033Z,53.24
2024-03-15T06:44:20.869Z,53.31
2024-03-15T06:47:16.457Z,53.74
2024-03-15T06:49:55.939Z,53.66
2024-03-15T06:52:35.892Z,53.83
2024-03-15T06:55:04.984Z,54.02
2024-03-15T06:57:34.204Z,54.14
2024-03-15T07:00:09.640Z,54.47
2024-03-15T07:02:41.390Z,54.62
2024-03-15T07:05:09.964Z,54.75
2024-03-15T07:07:39.593Z,54.86
2024-03-15T07:10:09.515Z,55.06
2024-03-15T07:12:40.702Z,55.26
2024-03-15T07:15:10.786Z,55.52
2024-03-15T07:17:40.244Z,55.88
2024-03-15T07:20:10.526Z,56.06
2024-03-15T07:22:39.485Z,56.31
2024-03-15T07:25:11.752Z,56.53
2024-03-15T07:27:42.087Z,56.54
2024-03-15T07:30:15.402Z,56.44
2024-03-15T07:32:43.934Z,56.22
2024-03-15T07:35:12.417Z,56.16
2024-03-15T07:37:41.474Z,56.08
2024-03-15T07:40:11.817Z,56.01
2024-03-15T07:42:40.661Z,56.09
2024-03-15T07:45:11.863Z,56.01
2024-03-15T07:47:40.581Z,56.16
2024-03-15T07:50:13.345Z,56.17
2024-03-15T07:52:41.913Z,56.11
2024-03-15T07:55:11.021Z,55.99
2024-03-15T07:57:39.630Z,55.75
2024-03-15T08:00:10.728Z,55.40
2024-03-15T08:02:39.251Z,55.27
2024-03-15T08:05:07.847Z,54.90
2024-03-15T08:07:36.293Z,54.79
2024-03-15T08:10:06.885Z,54.57
2024-03-15T08:12:35.981Z,54.51
2024-03-15T08:15:08.453Z,54.07
2024-03-15T08:17:38.020Z,53.98
2024-03-15T08:20:10.072Z,54.01
2024-03-15T08:22:41.632Z,53.80
2024-03-15T08:25:11.479Z,53.77
2024-03-15T08:27:43.243Z,53.95
2024-03-15T08:30:14.701Z,53.75
2024-03-15T08:32:43.270Z,53.74
2024-03-15T08:35:15.751Z,53.60
2024-03-15T08:37:45.041Z,53.53
2024-03-15T08:40:15.739Z,53.43
2024-03-15T08:42:46.825Z,53.24
2024-03-15T08:45:16.301Z,53.24
2024-03-15T08:47:55.630Z,53.37
2024-03-15T08:50:34.911Z,52.97
2024-03-15T08:53:05.017Z,52.81
2024-03-15T08:55:35.004Z,52.78
2024-03-15T08:58:04.798Z,52.40
2024-03-15T09:00:33.708Z,52.23
2024-03-15T09:03:02.155Z,52.11
2024-03-15T09:05:30.600Z,51.81
2024-03-15T09:07:59.962Z,51.30
2024-03-15T09:10:28.672Z,50.97
2024-03-15T09:12:57.485Z,50.46
2024-03-15T09:15:27.960Z,50.27
2024-03-15T09:18:00.086Z,49.75
2024-03-15T09:20:34.770Z,49.49
2024-03-15T09:23:04.126Z,49.07
2024-03-15T09:25:32.829Z,48.75
2024-03-15T09:28:01.803Z,48.42
2024-03-15T09:33:05.430Z,47.93
2024-03-15T09:35:33.998Z,47.86
2024-03-15T09:38:02.803Z,48.06
2024-03-15T09:40:31.364Z,47.85
2024-03-15T09:42:59.844Z,47.83
2024-03-15T09:45:28.450Z,47.97
2024-03-15T09:47:57.087Z,47.54
2024-03-15T09:50:26.212Z,47.02
2024-03-15T09:52:54.653Z,47.43
2024-03-15T09:55:23.336Z,47.31
2024-03-15T09:57:51.978Z,47.30
2024-03-15T10:00:26.297Z,47.12
2024-03-15T10:02:55.163Z,46.27
2024-03-15T10:05:23.762Z,46.42
2024-03-15T10:07:52.234Z,46.44
2024-03-15T10:10:20.683Z,46.03
2024-03-15T10:12:49.348Z,45.47
2024-03-15T10:15:18.250Z,45.75
2024-03-15T10:17:47.429Z,45.61
2024-03-15T10:20:19.480Z,44.28
2024-03-15T10:22:49.979Z,44.01
2024-03-15T10:25:20.054Z,44.04
2024-03-15T10:27:50.178Z,43.21
2024-03-15T10:30:21.328Z,43.09
2024-03-15T10:32:50.718Z,42.52
2024-03-15T10:35:20.337Z,42.15
2024-03-15T10:37:49.095Z,41.27
2024-03-15T10:40:17.596Z,41.15
2024-03-15T10:42:47.831Z,40.02
2024-03-15T10:45:16.718Z,40.29
2024-03-15T10:47:45.707Z,40.38
2024-03-15T10:50:14.240Z,40.12
2024-03-15T10:52:43.251Z,40.00
2024-03-15T10:55:18.911Z,39.53
2024-03-15T10:57:47.498Z,39.33
2024-03-15T11:00:17.473Z,37.88
2024-03-15T11:02:46.063Z,38.03
2024-03-15T11:05:17.431Z,38.48
2024-03-15T11:07:45.929Z,38.54
2024-03-15T11:10:16.344Z,38.10
2024-03-15T11:12:44.971Z,38.47
2024-03-15T11:15:14.981Z,37.78
2024-03-15T11:17:44.054Z,37.69
2024-03-15T11:20:14.378Z,36.74
2024-03-15T11:22:42.975Z,36.99
2024-03-15T11:25:19.438Z,36.77
2024-03-15T11:28:00.917Z,36.04
2024-03-15T11:30:29.837Z,35.91
2024-03-15T11:32:58.766Z,35.37
2024-03-15T11:35:27.357Z,35.82
2024-03-15T11:37:57.346Z,35.88
2024-03-15T11:40:27.506Z,35.22
2024-03-15T11:43:05.427Z,34.97
2024-03-15T11:45:38.082Z,34.68
2024-03-15T11:48:16.305Z,34.46
2024-03-15T11:50:46.101Z,34.52
2024-03-15T11:53:15.680Z,35.05
2024-03-15T11:55:44.657Z,34.66
2024-03-15T11:58:15.069Z,34.56
2024-03-15T12:00:43.786Z,33.80
2024-03-15T12:03:13.111Z,34.15
2024-03-15T12:05:43.386Z,34.24
2024-03-15T12:08:14.631Z,34.24
2024-03-15T12:10:43.314Z,33.97
2024-03-15T12:13:18.089Z,34.19
2024-03-15T12:15:47.340Z,34.04
2024-03-15T12:18:16.626Z,33.33
2024-03-15T12:20:45.194Z,33.99
2024-03-15T12:23:14.492Z,33.52
2024-03-15T12:25:42.988Z,33.49
2024-03-15T12:28:13.762Z,33.61
2024-03-15T12:30:42.765Z,33.23
2024-03-15T12:33:11.714Z,32.55
2024-03-15T12:35:40.656Z,32.64
2024-03-15T12:38:09.992Z,32.32
2024-03-15T12:40:43.697Z,32.65
2024-03-15T12:43:14.999Z,32.00
2024-03-15T12:45:43.984Z,31.69
2024-03-15T12:48:13.205Z,32.16
2024-03-15T12:50:42.561Z,31.62
2024-03-15T12:53:13.316Z,31.63
2024-03-15T12:55:42.534Z,31.76
2024-03-15T12:58:11.737Z,30.75
2024-03-15T13:00:40.600Z,31.35
2024-03-15T13:03:11.699Z,31.46
2024-03-15T13:05:40.292Z,31.06
2024-03-15T13:08:08.831Z,31.47
2024-03-15T13:10:40.245Z,31.24
2024-03-15T13:13:08.697Z,31.32
2024-03-15T13:15:37.700Z,31.20
2024-03-15T13:18:08.241Z,31.41
2024-03-15T13:20:36.792Z,30.71
2024-03-15T13:23:06.566Z,30.68
2024-03-15T13:25:38.179Z,30.61
2024-03-15T13:28:09.098Z,31.01
2024-03-15T13:30:39.582Z,31.21
2024-03-15T13:33:11.127Z,30.99
2024-03-15T13:35:42.862Z,31.03
2024-03-15T13:38:15.586Z,30.95
2024-03-15T13:40:45.072Z,31.34
2024-03-15T13:43:13.849Z,31.46
2024-03-15T13:45:42.345Z,31.62
2024-03-15T13:48:13.384Z,31.85
2024-03-15T13:50:43.270Z,31.96
2024-03-15T13:53:12.659Z,31.93
2024-03-15T13:55:41.414Z,31.29
2024-03-15T13:58:09.920Z,31.20
2024-03-15T14:00:41.972Z,31.05
2024-03-15T14:03:11.144Z,31.52
2024-03-15T14:05:40.990Z,31.57
2024-03-15T14:08:10.187Z,31.26
2024-03-15T14:10:38.911Z,30.82
2024-03-15T14:13:07.700Z,30.95
2024-03-15T14:15:36.551Z,30.37
2024-03-15T14:18:06.753Z,30.47
2024-03-15T14:20:36.216Z,30.71
2024-03-15T14:23:04.910Z,30.97
2024-03-15T14:25:34.637Z,30.64
2024-03-15T14:28:06.185Z,31.05
2024-03-15T14:30:35.843Z,31.18
2024-03-15T14:33:08.568Z,31.08
2024-03-15T14:35:37.477Z,31.73
2024-03-15T14:38:09.555Z,30.82
2024-03-15T14:40:40.221Z,30.72
2024-03-15T14:43:12.118Z,31.25
2024-03-15T14:45:41.857Z,31.41
2024-03-15T14:48:15.362Z,30.83
2024-03-15T14:50:45.650Z,30.49
2024-03-15T14:53:17.177Z,30.29
2024-03-15T14:55:46.989Z,30.48
2024-03-15T14:58:16.119Z,30.47
2024-03-15T15:00:49.493Z,30.32
2024-03-15T15:03:18.728Z,30.36
2024-03-15T15:05:47.870Z,30.56
2024-03-15T15:08:16.464Z,30.99
2024-03-15T15:10:44.963Z,30.64
2024-03-15T15:13:13.648Z,31.09
2024-03-15T15:15:43.262Z,31.48
2024-03-15T15:18:13.060Z,31.00
2024-03-15T15:20:43.545Z,31.18
2024-03-15T15:23:12.314Z,30.99
2024-03-15T15:25:42.494Z,31.11
2024-03-15T15:28:11.058Z,31.48
2024-03-15T15:30:39.597Z,31.49
2024-03-15T15:33:09.291Z,32.06
2024-03-15T15:35:38.655Z,31.53
2024-03-15T15:38:08.832Z,31.55
2024-03-15T15:40:39.038Z,31.37
2024-03-15T15:43:08.289Z,31.23
2024-03-15T15:45:38.373Z,31.37
2024-03-15T15:48:09.153Z,31.33
2024-03-15T15:50:38.921Z,31.75
2024-03-15T15:53:07.471Z,31.91
2024-03-15T15:55:37.287Z,31.98
2024-03-15T15:58:06.493Z,31.43
2024-03-15T16:00:35.206Z,31.75
2024-03-15T16:03:04.805Z,32.53
2024-03-15T16:05:34.764Z,33.58
2024-03-15T16:08:05.458Z,34.64
2024-03-15T16:10:35.377Z,34.85
2024-03-15T16:13:03.922Z,35.73
2024-03-15T16:15:32.491Z,35.71
2024-03-15T16:18:01.102Z,36.09
2024-03-15T16:20:29.860Z,36.59
2024-03-15T16:22:59.280Z,36.95
2024-03-15T16:25:27.693Z,37.83
2024-03-15T16:27:56.205Z,37.96
2024-03-15T16:30:25.163Z,38.35
2024-03-15T16:33:01.725Z,38.31
2024-03-15T16:35:32.859Z,38.97
2024-03-15T16:38:01.421Z,39.36
2024-03-15T16:40:30.017Z,39.37
2024-03-15T16:43:00.372Z,39.61
2024-03-15T16:45:29.145Z,39.75
2024-03-15T16:47:57.743Z,40.11
2024-03-15T16:50:26.692Z,40.05
2024-03-15T16:52:55.399Z,40.93
2024-03-15T16:55:24.918Z,40.92
2024-03-15T16:57:53.761Z,40.56
2024-03-15T17:00:23.525Z,41.83
2024-03-15T17:02:53.312Z,41.61
2024-03-15T17:05:21.930Z,42.17
2024-03-15T17:07:52.890Z,42.74
2024-03-15T17:10:22.692Z,42.77
2024-03-15T17:12:51.560Z,43.13
2024-03-15T17:15:20.499Z,43.12
2024-03-15T17:17:49.260Z,43.05
2024-03-15T17:20:20.932Z,43.28
2024-03-15T17:22:49.360Z,43.92
2024-03-15T17:25:18.011Z,43.87
2024-03-15T17:27:46.460Z,43.99
2024-03-15T17:30:18.093Z,44.24
2024-03-15T17:32:46.497Z,44.24
2024-03-15T17:35:15.331Z,44.49
2024-03-15T17:37:45.058Z,44.42
2024-03-15T17:40:13.982Z,44.58
2024-03-15T17:42:42.653Z,44.78
2024-03-15T17:45:11.454Z,44.93
2024-03-15T17:47:40.193Z,45.20
2024-03-15T17:50:09.267Z,45.12
2024-03-15T17:52:39.519Z,45.00
2024-03-15T17:55:11.651Z,45.28
2024-03-15T17:57:40.574Z,45.20
2024-03-15T18:00:13.954Z,45.55
2024-03-15T18:02:42.861Z,45.22
2024-03-15T18:05:12.610Z,45.37
2024-03-15T18:07:41.337Z,45.64
2024-03-15T18:10:10.868Z,45.63
2024-03-15T18:12:40.235Z,45.68
2024-03-15T18:15:14.685Z,45.78
2024-03-15T18:17:43.284Z,46.22
2024-03-15T18:20:11.964Z,46.55
2024-03-15T18:22:40.397Z,46.65
2024-03-15T18:25:09.541Z,46.80
2024-03-15T18:27:38.315Z,47.11
2024-03-15T18:30:08.102Z,47.19
2024-03-15T18:32:37.779Z,47.41
2024-03-15T18:35:06.799Z,47.46
2024-03-15T18:37:35.231Z,47.61
2024-03-15T18:40:03.932Z,47.80
2024-03-15T18:42:32.542Z,47.86
2024-03-15T18:45:01.976Z,47.85
2024-03-15T18:47:31.105Z,47.84
2024-03-15T18:49:59.868Z,47.92
2024-03-15T18:52:28.378Z,48.10
2024-03-15T18:54:58.288Z,48.42
2024-03-15T18:57:27.574Z,48.76
2024-03-15T18:59:59.455Z,48.74
2024-03-15T19:02:28.174Z,48.88
2024-03-15T19:04:56.588Z,48.68
2024-03-15T19:07:25.053Z,48.74
2024-03-15T19:09:53.655Z,48.72
2024-03-15T19:12:22.508Z,48.76
2024-03-15T19:14:51.130Z,48.78
2024-03-15T19:17:19.653Z,48.83
2024-03-15T19:19:51.376Z,48.68
2024-03-15T19:22:20.039Z,48.70
2024-03-15T19:24:48.612Z,48.69
2024-03-15T19:27:17.151Z,48.78
2024-03-15T19:29:45.682Z,48.77
2024-03-15T19:32:14.142Z,48.82
2024-03-15T19:34:42.702Z,48.68
2024-03-15T19:37:11.530Z,48.64
2024-03-15T19:39:40.095Z,48.53
2024-03-15T19:42:09.072Z,48.55
2024-03-15T19:44:37.544Z,48.63
2024-03-15T19:47:08.190Z,48.63
2024-03-15T19:49:36.666Z,48.65
2024-03-15T19:52:05.996Z,48.58
2024-03-15T19:54:34.801Z,48.58
2024-03-15T19:57:04.129Z,48.39
2024-03-15T19:59:33.032Z,48.33
2024-03-15T20:02:04.133Z,48.44
2024-03-15T20:04:32.745Z,48.25
2024-03-15T20:07:01.641Z,48.16
2024-03-15T20:09:30.194Z,48.10
2024-03-15T20:11:58.645Z,48.09
2024-03-15T20:14:27.298Z,48.17
2024-03-15T20:16:55.995Z,48.07
2024-03-15T20:19:25.309Z,48.01
2024-03-15T20:21:54.545Z,48.03
2024-03-15T20:24:23.218Z,48.06
2024-03-15T20:26:51.960Z,48.07
2024-03-15T20:29:20.411Z,48.15
2024-03-15T20:31:48.869Z,48.07
2024-03-15T20:34:17.411Z,48.09
2024-03-15T20:36:45.853Z,48.20
2024-03-15T20:39:15.545Z,48.31
2024-03-15T20:41:44.650Z,48.21
2024-03-15T20:44:13.192Z,48.32
2024-03-15T20:46:41.856Z,48.22
2024-03-15T20:49:12.826Z,48.24
2024-03-15T20:51:41.668Z,48.40
2024-03-15T20:54:10.173Z,48.33
2024-03-15T20:56:38.612Z,48.52
2024-03-15T20:59:07.174Z,48.65
2024-03-15T21:01:35.664Z,48.69
2024-03-15T21:04:04.201Z,48.76
2024-03-15T21:06:34.979Z,48.77
2024-03-15T21:09:06.933Z,48.69
2024-03-15T21:11:35.688Z,48.71
2024-03-15T21:14:06.244Z,48.64
2024-03-15T21:16:34.769Z,48.77
2024-03-15T21:19:07.105Z,48.71
2024-03-15T21:21:37.546Z,48.72
2024-03-15T21:24:06.644Z,48.74
2024-03-15T21:26:35.445Z,48.73
2024-03-15T21:29:03.927Z,48.80
2024-03-15T21:31:32.568Z,48.74
2024-03-15T21:34:01.080Z,48.83
2024-03-15T21:36:29.791Z,48.88
2024-03-15T21:38:58.313Z,48.86
2024-03-15T21:41:26.929Z,48.92
2024-03-15T21:43:55.597Z,48.96
2024-03-15T21:46:33.494Z,49.04
2024-03-15T21:49:02.559Z,49.16
2024-03-15T21:51:30.191Z,49.26
2024-03-15T21:53:58.714Z,49.16
2024-03-15T21:56:29.107Z,49.42
2024-03-15T21:59:00.933Z,49.38
2024-03-15T22:01:31.290Z,49.67
2024-03-15T22:03:59.982Z,49.80
2024-03-15T22:06:28.649Z,49.81
2024-03-15T22:08:57.210Z,49.90
2024-03-15T22:11:25.801Z,50.07
2024-03-15T22:13:54.425Z,50.25
2024-03-15T22:16:22.968Z,50.46
2024-03-15T22:18:51.620Z,50.55
2024-03-15T22:21:20.207Z,50.78
2024-03-15T22:23:48.747Z,50.97
2024-03-15T22:26:18.236Z,50.96
2024-03-15T22:28:47.228Z,50.82
2024-03-15T22:31:16.793Z,50.97
2024-03-15T22:33:45.373Z,50.88
2024-03-15T22:36:13.926Z,51.15
2024-03-15T22:38:42.463Z,51.20
2024-03-15T22:41:10.902Z,51.29
2024-03-15T22:43:39.433Z,51.35
2024-03-15T22:46:07.922Z,51.32
2024-03-15T22:48:36.570Z,51.52
2024-03-15T22:51:05.634Z,51.50
2024-03-15T22:53:34.182Z,51.42
2024-03-15T22:56:02.699Z,51.66
2024-03-15T22:58:32.323Z,51.54
2024-03-15T23:01:06.699Z,51.61
2024-03-15T23:03:36.072Z,51.51
2024-03-15T23:06:05.993Z,51.66
2024-03-15T23:08:34.574Z,51.52
2024-03-15T23:11:03.262Z,51.69
2024-03-15T23:13:33.308Z,51.89
2024-03-15T23:16:01.832Z,51.82
2024-03-15T23:18:30.411Z,51.95
2024-03-15T23:21:00.268Z,52.16
2024-03-15T23:23:28.955Z,52.18
2024-03-15T23:25:58.528Z,52.26
2024-03-15T23:28:27.345Z,52.27
2024-03-15T23:30:57.568Z,52.25
2024-03-15T23:33:27.455Z,52.16
2024-03-15T23:35:56.002Z,52.38
2024-03-15T23:38:24.680Z,52.32
2024-03-15T23:40:53.474Z,52.44
2024-03-15T23:43:22.590Z,52.59
2024-03-15T23:45:52.229Z,52.49
2024-03-15T23:48:27.444Z,52.55
2024-03-15T23:50:56.047Z,52.65
2024-03-15T23:53:24.613Z,52.48
2024-03-15T23:55:53.100Z,52.44
2024-03-15T23:58:21.829Z,52.78
